Time;durP1;ratioP1;P1;durP2;ratioP2;P2;SDS_P1;SDS_P2;PMS_P1;PMS_P2;Temp;Humidity;BMP_temperature;BMP_pressure;BME280_temperature;BME280_humidity;BME280_pressure;Samples;Min_cycle;Max_cycle;Signal;HPM_P1;HPM_P2
2021/09/10 00:01:13;;;;;;;;;4.00;2.25;;;;;23.58;57.81;100425.69;5092039;28;45742;-80
2021/09/10 00:03:38;;;;;;;;;2.00;2.00;;;;;23.51;57.39;100416.78;5089711;28;46402;-80
2021/09/10 00:06:04;;;;;;;;;3.00;2.00;;;;;23.58;57.54;100428.38;5090539;28;45589;-80
2021/09/10 00:08:29;;;;;;;;;2.00;1.25;;;;;23.57;58.29;100431.22;5089301;28;45752;-80
2021/09/10 00:14:17;;;;;;;;;2.00;2.00;;;;;23.42;58.09;100413.44;5087003;28;45767;-80
2021/09/10 00:16:42;;;;;;;;;1.00;1.00;;;;;23.49;57.95;100429.53;5078616;28;45403;-83
2021/09/10 00:19:08;;;;;;;;;2.25;2.25;;;;;23.48;58.40;100432.41;5078886;28;45779;-79
2021/09/10 00:21:33;;;;;;;;;1.75;1.25;;;;;23.43;58.28;100439.13;5062173;28;47466;-79
2021/09/10 00:23:58;;;;;;;;;2.00;2.00;;;;;23.42;58.46;100436.69;5081420;28;46399;-81
2021/09/10 00:29:46;;;;;;;;;2.00;2.00;;;;;23.36;58.83;100440.97;5084546;28;45613;-80
2021/09/10 00:32:11;;;;;;;;;2.00;2.00;;;;;23.29;58.51;100428.56;5083760;28;45476;-81
2021/09/10 00:34:37;;;;;;;;;2.00;2.00;;;;;23.31;58.54;100440.72;5084444;28;46298;-78
2021/09/10 00:37:02;;;;;;;;;3.50;2.00;;;;;23.29;58.38;100439.25;5067345;28;45760;-78
2021/09/10 00:39:28;;;;;;;;;3.00;2.25;;;;;23.15;58.93;100416.97;5085018;28;45603;-82
2021/09/10 00:41:53;;;;;;;;;1.25;1.00;;;;;23.11;58.56;100418.34;5080848;28;46562;-82
2021/09/10 00:44:19;;;;;;;;;3.00;2.75;;;;;23.21;59.23;100436.75;5082376;28;46420;-81
2021/09/10 00:46:45;;;;;;;;;1.75;1.50;;;;;23.17;59.03;100433.63;5081767;28;45726;-81
2021/09/10 00:49:10;;;;;;;;;2.25;2.00;;;;;23.18;58.69;100439.78;5081089;28;45591;-80
2021/09/10 00:51:36;;;;;;;;;3.00;3.00;;;;;23.16;58.96;100442.66;5076537;28;45600;-83
2021/09/10 00:54:02;;;;;;;;;4.25;3.00;;;;;23.14;59.19;100439.38;5058017;28;46598;-83
2021/09/10 00:59:49;;;;;;;;;2.00;2.00;;;;;23.13;59.42;100450.25;5076428;28;45591;-80
2021/09/10 01:02:25;;;;;;;;;4.00;3.75;;;;;23.11;59.50;100453.09;5102580;27;46087;-80
2021/09/10 01:04:51;;;;;;;;;3.00;2.50;;;;;23.09;59.23;100454.31;5097497;27;45961;-81
2021/09/10 01:07:17;;;;;;;;;2.00;2.00;;;;;23.06;59.15;100458.19;5084000;27;45921;-81
2021/09/10 01:09:44;;;;;;;;;2.50;2.00;;;;;23.02;59.68;100447.09;5089777;27;46214;-80
2021/09/10 01:12:10;;;;;;;;;2.00;2.00;;;;;23.09;59.64;100460.50;5089614;27;45818;-80
2021/09/10 01:14:36;;;;;;;;;2.00;2.00;;;;;23.08;59.79;100461.53;5092325;27;46052;-81
2021/09/10 01:17:01;;;;;;;;;1.25;1.25;;;;;23.09;59.23;100459.69;5088433;27;45862;-81
2021/09/10 01:19:30;;;;;;;;;2.00;2.00;;;;;23.04;59.84;100462.09;5089109;27;47057;-80
2021/09/10 01:21:58;;;;;;;;;2.25;2.25;;;;;23.06;59.51;100465.38;5090406;27;46178;-80
2021/09/10 01:24:29;;;;;;;;;3.00;2.00;;;;;23.02;60.03;100468.47;5088383;27;45824;-81
2021/09/10 01:26:56;;;;;;;;;3.00;2.00;;;;;22.92;59.93;100451.94;5078784;27;45660;-80
2021/09/10 01:29:22;;;;;;;;;3.00;2.00;;;;;22.96;59.71;100460.38;5080127;27;46474;-82
2021/09/10 01:31:47;;;;;;;;;3.00;3.00;;;;;22.88;59.60;100449.84;5086770;27;46077;-82
2021/09/10 01:34:13;;;;;;;;;3.00;3.00;;;;;22.90;60.44;100455.81;5089318;27;45744;-81
2021/09/10 01:36:38;;;;;;;;;3.00;2.75;;;;;22.88;59.92;100461.38;5088903;27;45577;-80
2021/09/10 01:39:03;;;;;;;;;3.00;2.50;;;;;22.90;59.71;100467.31;5084130;27;45703;-81
2021/09/10 01:41:29;;;;;;;;;1.75;1.75;;;;;22.89;59.88;100465.66;5088419;27;46844;-79
2021/09/10 01:43:54;;;;;;;;;2.00;2.00;;;;;22.90;60.13;100467.31;5083293;27;45935;-82
2021/09/10 01:46:20;;;;;;;;;3.00;2.75;;;;;22.74;60.37;100446.22;5088944;27;45814;-81
2021/09/10 01:48:47;;;;;;;;;4.00;3.00;;;;;22.80;60.45;100461.47;5082286;27;46386;-81
2021/09/10 01:51:12;;;;;;;;;4.00;2.00;;;;;22.79;60.63;100459.00;5087814;27;45802;-79
2021/09/10 01:53:38;;;;;;;;;3.00;2.25;;;;;22.81;60.65;100467.66;5086375;27;45723;-81
2021/09/10 01:56:03;;;;;;;;;2.00;2.00;;;;;22.78;59.96;100460.84;5084079;27;45757;-80
2021/09/10 01:58:29;;;;;;;;;3.00;2.00;;;;;22.73;60.71;100459.75;5100247;27;46724;-80
2021/09/10 02:00:54;;;;;;;;;3.00;3.00;;;;;22.70;60.11;100455.59;5067648;27;46387;-80
2021/09/10 02:03:20;;;;;;;;;3.00;2.75;;;;;22.66;60.41;100449.00;5038538;28;46155;-79
2021/09/10 02:05:46;;;;;;;;;2.00;2.00;;;;;22.70;60.45;100457.44;5048438;28;45681;-80
2021/09/10 02:08:12;;;;;;;;;2.00;2.00;;;;;22.66;60.64;100464.19;5045642;28;46673;-80
2021/09/10 02:10:37;;;;;;;;;2.25;2.00;;;;;22.63;60.52;100459.22;5047152;28;46091;-78
2021/09/10 02:13:05;;;;;;;;;3.00;2.75;;;;;22.65;61.04;100468.72;5029866;28;46040;-79
2021/09/10 02:15:31;;;;;;;;;3.00;2.00;;;;;22.68;60.42;100470.16;5034885;28;45759;-79
2021/09/10 02:17:56;;;;;;;;;2.00;2.00;;;;;22.67;60.48;100476.53;5026626;28;45855;-80
2021/09/10 02:20:21;;;;;;;;;3.50;3.00;;;;;22.67;61.00;100468.53;5034325;28;46348;-80
2021/09/10 02:22:47;;;;;;;;;3.00;3.00;;;;;22.67;60.73;100473.88;5033611;28;45751;-81
2021/09/10 02:25:12;;;;;;;;;2.75;2.00;;;;;22.58;61.14;100471.31;5040323;28;45760;-81
2021/09/10 02:27:37;;;;;;;;;2.25;2.25;;;;;22.57;61.11;100469.66;5040010;28;46494;-81
2021/09/10 02:30:04;;;;;;;;;4.25;3.00;;;;;22.63;61.13;100478.75;5031541;28;45780;-80
2021/09/10 02:32:29;;;;;;;;;4.25;3.00;;;;;22.62;60.66;100484.31;5033147;28;45740;-81
2021/09/10 02:34:55;;;;;;;;;3.00;3.00;;;;;22.56;61.27;100475.19;5031759;28;46007;-80
2021/09/10 02:37:21;;;;;;;;;3.00;3.00;;;;;22.60;61.46;100482.63;5034824;28;45668;-82
2021/09/10 02:39:47;;;;;;;;;2.75;2.25;;;;;22.50;60.93;100460.75;5035704;28;46410;-81
2021/09/10 02:42:13;;;;;;;;;3.25;3.00;;;;;22.57;61.37;100482.16;5033167;28;45744;-80
2021/09/10 02:44:38;;;;;;;;;2.75;2.25;;;;;22.41;61.34;100456.53;5045331;28;45768;-82
2021/09/10 02:47:03;;;;;;;;;4.00;3.00;;;;;22.45;61.57;100463.19;5029595;28;45650;-81
2021/09/10 02:49:29;;;;;;;;;3.00;2.50;;;;;22.52;61.59;100479.25;5035201;28;45991;-79
2021/09/10 02:51:54;;;;;;;;;2.75;2.00;;;;;22.48;61.12;100470.78;5031592;28;46087;-82
2021/09/10 02:54:20;;;;;;;;;3.25;3.25;;;;;22.51;61.66;100483.75;5068862;27;46028;-82
2021/09/10 02:56:45;;;;;;;;;4.50;3.00;;;;;22.45;61.90;100465.84;5040284;28;45923;-82
2021/09/10 02:59:10;;;;;;;;;2.25;2.25;;;;;22.50;61.77;100471.44;5035183;28;45580;-79
2021/09/10 03:01:36;;;;;;;;;2.00;2.00;;;;;22.48;61.76;100472.63;5042164;28;45942;-82
2021/09/10 03:04:01;;;;;;;;;3.00;2.25;;;;;22.46;61.76;100469.31;5072166;27;45833;-80
2021/09/10 03:06:26;;;;;;;;;3.50;3.00;;;;;22.39;61.79;100455.09;5060480;27;45762;-80
2021/09/10 03:08:52;;;;;;;;;3.75;3.00;;;;;22.36;61.92;100450.94;5075444;27;46261;-80
2021/09/10 03:11:17;;;;;;;;;3.25;2.25;;;;;22.44;61.30;100460.69;5069884;27;45940;-84
2021/09/10 03:13:42;;;;;;;;;4.00;4.00;;;;;22.42;61.61;100460.03;5073534;27;45601;-82
2021/09/10 03:16:08;;;;;;;;;4.00;4.00;;;;;22.39;62.32;100455.91;5069045;27;47288;-81
2021/09/10 03:18:33;;;;;;;;;4.00;3.25;;;;;22.33;62.11;100451.34;5060729;28;48208;-81
2021/09/10 03:21:01;;;;;;;;;5.00;4.00;;;;;22.32;61.85;100452.34;5079643;27;45688;-82
2021/09/10 03:23:26;;;;;;;;;5.25;4.00;;;;;22.29;62.34;100454.56;5076471;27;45972;-80
2021/09/10 03:25:52;;;;;;;;;4.00;3.00;;;;;22.19;62.41;100449.50;5065373;27;46149;-82
2021/09/10 03:28:17;;;;;;;;;4.25;4.00;;;;;22.14;62.57;100444.75;5070577;28;47511;-80
2021/09/10 03:30:43;;;;;;;;;4.00;4.00;;;;;22.22;62.23;100457.16;5087111;27;45915;-80
2021/09/10 03:33:08;;;;;;;;;5.00;4.50;;;;;22.19;62.90;100462.84;5071380;27;45823;-79
2021/09/10 03:35:33;;;;;;;;;4.50;4.00;;;;;22.19;62.94;100457.53;5073605;27;46360;-82
2021/09/10 03:37:59;;;;;;;;;4.00;4.00;;;;;22.11;62.36;100453.13;5072455;27;46564;-81
2021/09/10 03:40:25;;;;;;;;;6.00;5.00;;;;;22.12;62.61;100462.81;5073905;27;45728;-80
2021/09/10 03:42:51;;;;;;;;;5.25;4.00;;;;;22.11;62.53;100449.63;5079592;27;45606;-80
2021/09/10 03:45:16;;;;;;;;;5.00;5.00;;;;;22.12;62.89;100459.31;5074885;27;46490;-83
2021/09/10 03:47:42;;;;;;;;;5.00;5.00;;;;;22.07;63.00;100451.88;5084748;27;47244;-83
2021/09/10 03:50:08;;;;;;;;;7.00;5.00;;;;;22.02;62.70;100445.44;5081155;27;45973;-81
2021/09/10 03:52:33;;;;;;;;;5.75;5.00;;;;;21.97;63.30;100439.84;5087230;27;45910;-81
2021/09/10 03:55:00;;;;;;;;;6.00;6.00;;;;;22.01;63.58;100449.94;5071557;28;48689;-82
2021/09/10 03:57:25;;;;;;;;;5.75;5.75;;;;;21.82;63.34;100423.81;5084668;27;45999;-80
2021/09/10 03:59:51;;;;;;;;;5.25;5.25;;;;;22.05;63.43;100455.72;5074259;27;45653;-81
2021/09/10 04:02:16;;;;;;;;;4.75;4.75;;;;;21.95;63.18;100450.69;5077684;27;45675;-78
2021/09/10 04:04:41;;;;;;;;;7.50;7.00;;;;;22.02;63.15;100453.44;5074028;27;45746;-79
2021/09/10 04:07:07;;;;;;;;;6.00;5.50;;;;;22.02;63.36;100459.59;5072919;27;46091;-82
2021/09/10 04:09:32;;;;;;;;;4.50;3.00;;;;;22.01;63.75;100454.44;5068266;27;46202;-81
2021/09/10 04:11:57;;;;;;;;;5.75;5.75;;;;;21.91;63.91;100441.38;5083083;27;45699;-81
2021/09/10 04:14:23;;;;;;;;;6.25;6.00;;;;;21.91;63.96;100449.38;5069697;28;46391;-80
2021/09/10 04:16:48;;;;;;;;;5.00;5.00;;;;;21.94;63.86;100458.84;5075746;27;46362;-79
2021/09/10 04:19:13;;;;;;;;;5.25;5.25;;;;;21.92;63.64;100464.34;5075358;27;45636;-89
2021/09/10 04:21:39;;;;;;;;;5.00;5.00;;;;;21.84;64.21;100453.78;5071127;27;45819;-82
2021/09/10 04:24:04;;;;;;;;;8.25;8.00;;;;;21.88;64.27;100462.25;5064856;27;45801;-83
2021/09/10 04:26:30;;;;;;;;;7.00;5.00;;;;;21.75;63.84;100439.72;5078765;27;46458;-89
2021/09/10 04:28:55;;;;;;;;;5.25;5.25;;;;;21.82;63.92;100454.97;5070234;27;45837;-87
2021/09/10 04:31:20;;;;;;;;;8.00;6.00;;;;;21.83;64.57;100456.63;5063042;27;45641;-87
2021/09/10 04:33:46;;;;;;;;;6.75;6.00;;;;;21.70;64.35;100436.78;5065159;27;47216;-85
2021/09/10 04:36:15;;;;;;;;;4.50;4.25;;;;;21.77;64.61;100444.88;5069758;27;45861;-80
2021/09/10 04:38:41;;;;;;;;;4.50;4.25;;;;;21.69;64.10;100439.66;5072083;27;46007;-84
2021/09/10 04:41:06;;;;;;;;;5.00;4.75;;;;;21.74;64.12;100450.59;5072133;27;45562;-80
2021/09/10 04:43:32;;;;;;;;;7.50;5.25;;;;;21.81;64.64;100458.69;5071585;27;45749;-80
2021/09/10 04:45:57;;;;;;;;;10.00;8.50;;;;;21.71;64.59;100434.94;5087437;27;46112;-83
2021/09/10 04:48:22;;;;;;;;;5.00;5.00;;;;;21.73;64.09;100452.41;5067071;27;45799;-86
2021/09/10 04:50:48;;;;;;;;;6.00;6.00;;;;;21.67;64.30;100437.16;5066204;27;45942;-83
2021/09/10 04:53:13;;;;;;;;;5.75;5.25;;;;;21.76;64.21;100448.53;5070233;27;46267;-81
2021/09/10 04:55:39;;;;;;;;;5.75;5.00;;;;;21.78;64.23;100463.38;5072366;27;46921;-79
2021/09/10 04:58:04;;;;;;;;;4.50;4.50;;;;;21.79;64.71;100466.84;5073236;27;45726;-84
2021/09/10 05:00:29;;;;;;;;;4.50;4.25;;;;;21.77;64.58;100464.38;5072604;27;45899;-78
2021/09/10 05:02:55;;;;;;;;;7.25;5.00;;;;;21.77;64.72;100466.22;5072063;27;45631;-80
2021/09/10 05:05:20;;;;;;;;;8.25;5.00;;;;;21.72;64.42;100463.28;5070019;28;47140;-81
2021/09/10 05:07:46;;;;;;;;;10.00;10.00;;;;;21.74;64.80;100461.25;5067908;27;45651;-81
2021/09/10 05:10:11;;;;;;;;;5.25;4.75;;;;;21.67;64.48;100444.31;5069287;28;45638;-88
2021/09/10 05:12:37;;;;;;;;;4.75;4.00;;;;;21.66;64.62;100445.34;5068809;27;47167;-83
2021/09/10 05:15:03;;;;;;;;;7.50;6.25;;;;;21.72;64.39;100450.75;5064005;27;45609;-82
2021/09/10 05:17:29;;;;;;;;;7.00;7.00;;;;;21.82;64.44;100470.97;5075673;28;45760;-81
2021/09/10 05:19:54;;;;;;;;;5.50;5.00;;;;;21.82;64.64;100478.97;5078814;27;45686;-81
2021/09/10 05:22:19;;;;;;;;;7.00;6.50;;;;;21.81;64.56;100472.81;5064953;28;46303;-83
2021/09/10 05:24:45;;;;;;;;;6.00;4.00;;;;;21.85;64.69;100470.63;5062636;27;47237;-86
2021/09/10 05:27:10;;;;;;;;;6.50;5.25;;;;;21.85;64.12;100475.97;5071837;27;45890;-82
2021/09/10 05:29:36;;;;;;;;;4.50;4.50;;;;;21.89;64.65;100480.75;5062362;27;45840;-80
2021/09/10 05:32:01;;;;;;;;;5.75;4.25;;;;;21.87;64.02;100474.75;5072830;27;46293;-82
2021/09/10 05:34:27;;;;;;;;;8.75;6.75;;;;;21.94;64.52;100491.72;5066099;27;46193;-81
2021/09/10 05:36:52;;;;;;;;;11.50;10.00;;;;;21.92;64.77;100488.34;5066790;28;45994;-82
2021/09/10 05:39:17;;;;;;;;;9.75;7.50;;;;;21.94;64.34;100494.38;5081364;27;45885;-82
2021/09/10 05:41:46;;;;;;;;;6.00;6.00;;;;;21.96;64.46;100504.88;5072041;27;46048;-81
2021/09/10 05:44:11;;;;;;;;;9.00;7.00;;;;;21.95;64.76;100495.22;5071286;27;45915;-80
2021/09/10 05:46:37;;;;;;;;;8.50;8.00;;;;;21.85;64.33;100489.31;5074603;27;45596;-80
2021/09/10 05:49:03;;;;;;;;;6.00;4.25;;;;;21.95;64.81;100498.72;5106124;27;45934;-80
2021/09/10 05:51:29;;;;;;;;;8.50;7.25;;;;;21.97;64.37;100502.00;5080514;27;47508;-82
2021/09/10 05:53:55;;;;;;;;;6.00;6.00;;;;;21.98;64.86;100513.50;5059460;27;45973;-80
2021/09/10 05:56:20;;;;;;;;;5.00;5.00;;;;;21.88;64.23;100500.41;5067716;27;45780;-86
2021/09/10 05:58:46;;;;;;;;;5.00;5.00;;;;;21.99;64.53;100523.16;5065015;28;45786;-83
2021/09/10 06:01:11;;;;;;;;;5.00;5.00;;;;;21.99;64.64;100517.84;5063794;27;46575;-84
2021/09/10 06:03:36;;;;;;;;;5.00;5.00;;;;;21.98;64.69;100516.19;5064060;27;46293;-82
2021/09/10 06:06:02;;;;;;;;;4.75;4.75;;;;;21.99;64.38;100517.84;5066946;27;45787;-81
2021/09/10 06:08:29;;;;;;;;;6.00;5.50;;;;;22.04;64.24;100537.63;5110153;27;46043;-85
2021/09/10 06:10:54;;;;;;;;;19.25;17.25;;;;;21.98;64.64;100530.34;5062423;27;46562;-82
2021/09/10 06:13:22;;;;;;;;;5.75;4.25;;;;;21.97;63.97;100526.00;5070246;27;46049;-82
2021/09/10 06:15:48;;;;;;;;;6.00;5.00;;;;;21.99;64.67;100529.34;5059660;27;45941;-80
2021/09/10 06:18:13;;;;;;;;;5.75;5.25;;;;;21.96;64.49;100535.06;5075526;27;45659;-82
2021/09/10 06:20:39;;;;;;;;;8.75;6.75;;;;;21.93;64.24;100522.03;5074035;27;46495;-81
2021/09/10 06:23:04;;;;;;;;;5.50;5.00;;;;;21.97;64.28;100542.03;5070632;27;46162;-83
2021/09/10 06:25:29;;;;;;;;;6.75;5.25;;;;;22.01;64.02;100548.66;5063365;28;45882;-81
2021/09/10 06:27:55;;;;;;;;;8.00;6.75;;;;;21.98;64.68;100534.84;5070249;28;45880;-81
2021/09/10 06:30:20;;;;;;;;;7.00;6.00;;;;;22.00;64.51;100556.84;5071074;27;46847;-81
2021/09/10 06:32:47;;;;;;;;;6.00;5.00;;;;;21.89;64.52;100520.75;5079035;27;45802;-81
2021/09/10 06:35:12;;;;;;;;;5.75;5.00;;;;;21.89;64.81;100526.09;5080266;27;46340;-87
2021/09/10 06:37:39;;;;;;;;;5.75;5.00;;;;;22.00;64.89;100548.84;5107128;27;45612;-80
2021/09/10 06:40:05;;;;;;;;;8.00;6.25;;;;;21.98;64.69;100548.19;5073845;27;46831;-82
2021/09/10 06:42:30;;;;;;;;;6.00;6.00;;;;;22.02;64.63;100552.16;5074708;27;46051;-79
2021/09/10 06:44:56;;;;;;;;;8.75;6.00;;;;;22.02;64.65;100555.66;5070035;28;45720;-78
2021/09/10 06:47:22;;;;;;;;;6.75;6.00;;;;;22.03;64.85;100559.13;5084909;27;46339;-79
2021/09/10 06:49:47;;;;;;;;;6.25;6.00;;;;;22.03;64.32;100556.47;5069578;27;46633;-76
2021/09/10 06:52:15;;;;;;;;;6.50;5.25;;;;;21.99;64.82;100566.69;5074540;27;46157;-78
2021/09/10 06:54:41;;;;;;;;;5.75;4.00;;;;;22.02;64.35;100571.69;5087292;27;45675;-78
2021/09/10 06:57:07;;;;;;;;;8.50;7.00;;;;;22.03;64.41;100572.47;5081148;27;45599;-76
2021/09/10 06:59:32;;;;;;;;;5.00;5.00;;;;;21.99;64.63;100568.53;5081550;28;47043;-77
2021/09/10 07:01:58;;;;;;;;;5.50;5.00;;;;;22.00;64.69;100576.34;5077456;27;45943;-78
2021/09/10 07:04:23;;;;;;;;;6.25;6.00;;;;;22.01;64.81;100577.19;5070791;27;45924;-77
2021/09/10 07:06:48;;;;;;;;;8.75;7.00;;;;;22.02;64.94;100579.69;5064077;27;45671;-79
2021/09/10 07:09:14;;;;;;;;;6.75;5.75;;;;;22.03;64.94;100585.81;5075295;27;45690;-77
2021/09/10 07:11:39;;;;;;;;;6.50;6.50;;;;;22.01;64.92;100586.03;5073689;27;46069;-76
2021/09/10 07:14:05;;;;;;;;;6.00;6.00;;;;;22.02;64.61;100587.69;5075153;27;45745;-76
2021/09/10 07:16:31;;;;;;;;;5.00;5.00;;;;;22.01;64.95;100582.53;5074660;27;45650;-77
2021/09/10 07:18:57;;;;;;;;;7.00;6.00;;;;;22.02;64.83;100587.69;5074397;28;45655;-78
2021/09/10 07:21:23;;;;;;;;;7.00;6.00;;;;;22.03;65.07;100588.50;5073751;27;46410;-77
2021/09/10 07:23:48;;;;;;;;;9.00;6.00;;;;;22.01;64.53;100579.84;5074178;27;45587;-76
2021/09/10 07:26:15;;;;;;;;;6.75;6.25;;;;;22.04;64.52;100579.47;5074193;27;45906;-78
2021/09/10 07:28:40;;;;;;;;;8.50;7.00;;;;;21.99;64.91;100574.69;5065000;27;45620;-77
2021/09/10 07:31:08;;;;;;;;;8.00;6.00;;;;;21.99;64.61;100574.69;5084434;27;46462;-77
2021/09/10 07:33:36;;;;;;;;;6.00;4.75;;;;;22.06;65.23;100582.81;5085043;27;45722;-78
2021/09/10 07:36:03;;;;;;;;;7.25;6.75;;;;;22.06;64.48;100590.81;5076525;27;46812;-77
2021/09/10 07:38:28;;;;;;;;;5.50;5.25;;;;;22.07;65.01;100581.81;5084335;27;46549;-77
2021/09/10 07:40:54;;;;;;;;;6.25;6.00;;;;;22.04;64.99;100574.97;5072213;27;47098;-76
2021/09/10 07:43:19;;;;;;;;;4.25;4.00;;;;;22.07;64.40;100582.63;5073845;27;45758;-76
2021/09/10 07:45:45;;;;;;;;;7.00;6.00;;;;;22.09;64.41;100590.44;5073383;27;46540;-77
2021/09/10 07:48:10;;;;;;;;;7.50;6.00;;;;;22.05;64.94;100589.97;5073955;27;46883;-77
2021/09/10 07:50:36;;;;;;;;;8.75;5.25;;;;;22.10;65.10;100598.25;5073417;27;45739;-78
2021/09/10 07:53:02;;;;;;;;;11.00;9.00;;;;;22.11;64.49;100599.09;5074255;27;45824;-76
2021/09/10 07:55:27;;;;;;;;;7.75;7.00;;;;;22.11;64.87;100597.25;5074843;27;45789;-75
2021/09/10 07:57:52;;;;;;;;;6.00;6.00;;;;;22.13;64.45;100605.88;5073591;27;46138;-78
2021/09/10 08:00:21;;;;;;;;;7.00;6.00;;;;;22.14;64.74;100604.88;5073104;27;46793;-77
2021/09/10 08:02:47;;;;;;;;;6.75;6.00;;;;;22.14;64.27;100602.22;5073772;28;45995;-77
2021/09/10 08:05:13;;;;;;;;;6.25;6.00;;;;;22.14;64.97;100612.88;5073754;27;45446;-78
2021/09/10 08:07:39;;;;;;;;;5.25;5.00;;;;;22.15;64.77;100613.72;5073352;27;46868;-78
2021/09/10 08:10:05;;;;;;;;;7.00;6.50;;;;;;;;5072605;27;46445;-77
2021/09/10 08:12:30;;;;;;;;;6.00;6.00;;;;;22.19;64.35;100623.00;5073116;27;45542;-78
2021/09/10 08:14:57;;;;;;;;;5.75;5.00;;;;;22.23;64.18;100624.31;5065817;27;45693;-78
2021/09/10 08:17:22;;;;;;;;;6.50;5.00;;;;;22.24;64.36;100625.94;5073542;27;46109;-77
2021/09/10 08:19:49;;;;;;;;;5.75;5.50;;;;;22.27;64.70;100625.59;5073326;28;45680;-78
2021/09/10 08:22:16;;;;;;;;;3.25;3.25;;;;;22.28;64.35;100627.25;5072940;27;45566;-77
2021/09/10 08:24:41;;;;;;;;;6.00;5.75;;;;;22.33;64.53;100622.19;5074438;27;45562;-77
2021/09/10 08:27:07;;;;;;;;;7.25;7.00;;;;;22.39;63.95;100623.31;5072202;28;45831;-78
2021/09/10 08:29:32;;;;;;;;;5.00;5.00;;;;;22.44;63.91;100628.91;5059776;27;45561;-77
2021/09/10 08:31:57;;;;;;;;;5.00;4.00;;;;;22.46;64.44;100624.19;5071827;27;45769;-77
2021/09/10 08:34:23;;;;;;;;;5.00;4.50;;;;;22.52;63.77;100637.63;5073357;27;45909;-77
2021/09/10 08:36:48;;;;;;;;;5.75;5.25;;;;;22.57;63.61;100631.72;5073412;27;46655;-75
2021/09/10 08:39:13;;;;;;;;;5.25;4.00;;;;;22.62;63.64;100625.84;5077134;27;45633;-76
2021/09/10 08:41:39;;;;;;;;;7.00;6.25;;;;;22.61;63.28;100627.69;5082973;27;45630;-78
2021/09/10 08:44:06;;;;;;;;;5.25;4.25;;;;;22.69;63.86;100632.91;5077083;28;45911;-78
2021/09/10 08:46:36;;;;;;;;;5.75;5.50;;;;;22.73;63.64;100639.56;5076220;27;47640;-77
2021/09/10 08:49:02;;;;;;;;;6.25;6.00;;;;;22.75;62.93;100647.41;5065936;27;46412;-78
2021/09/10 08:51:27;;;;;;;;;6.00;4.00;;;;;22.77;62.87;100640.88;5072070;27;45895;-76
2021/09/10 08:53:53;;;;;;;;;4.00;4.00;;;;;22.84;62.81;100635.59;5061951;27;45623;-77
2021/09/10 08:56:18;;;;;;;;;5.00;4.00;;;;;22.87;63.30;100641.41;5072996;27;46207;-76
2021/09/10 08:58:44;;;;;;;;;5.00;4.25;;;;;22.91;62.93;100645.34;5072704;27;45575;-78
2021/09/10 09:01:10;;;;;;;;;4.00;3.50;;;;;22.94;62.81;100639.63;5072137;27;45723;-77
2021/09/10 09:03:35;;;;;;;;;1.25;1.00;;;;;22.98;62.66;100650.78;5072764;27;45862;-77
2021/09/10 09:06:01;;;;;;;;;5.00;4.50;;;;;22.99;62.99;100650.59;5071508;27;46214;-78
2021/09/10 09:08:26;;;;;;;;;6.25;5.00;;;;;22.97;62.27;100649.13;5074013;27;46219;-77
2021/09/10 09:10:57;;;;;;;;;5.50;4.50;;;;;23.04;62.18;100646.53;5072484;27;45747;-78
2021/09/10 09:13:32;;;;;;;;;4.75;3.75;;;;;23.06;62.59;100647.13;5073508;27;45724;-76
2021/09/10 09:16:29;;;;;;;;;4.75;3.75;;;;;23.10;62.11;100651.13;5073308;27;47451;-78
2021/09/10 09:19:01;;;;;;;;;4.25;4.00;;;;;23.12;61.81;100643.72;5061446;27;46611;-77
2021/09/10 09:21:31;;;;;;;;;3.50;3.50;;;;;23.18;61.62;100654.47;5072196;27;45722;-77
2021/09/10 09:24:14;;;;;;;;;4.00;4.00;;;;;23.20;61.29;100652.47;5067325;27;45597;-78
2021/09/10 09:26:41;;;;;;;;;5.00;4.25;;;;;23.24;61.90;100656.41;5076044;27;45666;-77
2021/09/10 09:29:09;;;;;;;;;4.50;4.50;;;;;23.21;61.86;100642.59;5063268;27;45839;-78
2021/09/10 09:31:36;;;;;;;;;3.00;3.00;;;;;23.32;61.24;100656.25;5088059;27;45745;-78
2021/09/10 09:34:02;;;;;;;;;4.50;4.50;;;;;23.32;61.31;100647.44;5075904;27;45597;-77
2021/09/10 09:36:28;;;;;;;;;4.75;4.00;;;;;23.41;61.72;100654.31;5081414;27;46012;-77
2021/09/10 09:38:55;;;;;;;;;4.00;4.00;;;;;23.44;61.22;100656.59;5092991;27;46179;-76
2021/09/10 09:41:22;;;;;;;;;6.25;5.50;;;;;23.41;61.17;100649.78;5074168;28;45668;-77
2021/09/10 09:43:51;;;;;;;;;2.00;2.00;;;;;23.44;60.92;100644.03;5089042;27;45810;-77
2021/09/10 09:46:22;;;;;;;;;3.50;3.50;;;;;23.49;60.74;100656.88;5087944;27;47323;-77
2021/09/10 09:48:50;;;;;;;;;4.00;3.50;;;;;23.52;60.87;100656.50;5089448;27;46578;-77
2021/09/10 09:51:19;;;;;;;;;5.25;5.00;;;;;23.56;60.90;100654.25;5080167;27;45748;-77
2021/09/10 09:53:47;;;;;;;;;4.00;4.00;;;;;23.57;60.41;100646.06;5079197;27;45979;-77
2021/09/10 09:56:13;;;;;;;;;3.25;3.25;;;;;23.60;60.04;100653.69;5087462;27;46673;-77
2021/09/10 09:58:40;;;;;;;;;3.25;3.00;;;;;23.62;60.18;100665.03;5070280;28;46407;-78
2021/09/10 10:01:06;;;;;;;;;5.00;5.00;;;;;23.64;60.49;100662.19;5082628;27;45746;-77
2021/09/10 10:03:32;;;;;;;;;4.75;3.00;;;;;23.65;60.23;100653.94;5094225;27;45810;-77
2021/09/10 10:06:03;;;;;;;;;3.25;3.00;;;;;23.67;59.74;100662.59;5083677;27;46425;-77
2021/09/10 10:08:29;;;;;;;;;4.25;4.00;;;;;23.69;59.74;100657.06;5081341;27;46098;-77
2021/09/10 10:11:10;;;;;;;;;4.00;4.00;;;;;23.68;59.88;100652.72;5094314;27;45541;-77
2021/09/10 10:13:36;;;;;;;;;3.25;2.75;;;;;23.74;59.10;100660.00;5078869;27;45641;-76
2021/09/10 10:16:01;;;;;;;;;5.00;3.25;;;;;23.78;59.11;100650.56;5094047;27;46207;-77
2021/09/10 10:18:44;;;;;;;;;4.50;4.50;;;;;23.82;59.03;100658.00;5078354;28;45910;-78
2021/09/10 10:21:14;;;;;;;;;4.75;3.00;;;;;23.83;59.01;100648.94;5078986;28;45760;-77
2021/09/10 10:23:42;;;;;;;;;4.75;4.00;;;;;23.86;58.92;100647.72;5065401;28;45914;-77
2021/09/10 10:26:11;;;;;;;;;3.00;3.00;;;;;23.88;58.82;100644.84;5075189;27;47319;-77
2021/09/10 10:28:54;;;;;;;;;4.75;4.00;;;;;23.87;58.73;100638.66;5066626;27;46324;-77
2021/09/10 10:31:59;;;;;;;;;3.25;3.00;;;;;23.83;58.69;100624.88;5065428;27;45764;-78
2021/09/10 10:34:26;;;;;;;;;4.00;4.00;;;;;23.92;58.21;100632.72;5074582;27;45508;-77
2021/09/10 10:36:52;;;;;;;;;3.00;3.00;;;;;23.92;58.12;100632.72;5074708;27;47340;-77
2021/09/10 10:39:30;;;;;;;;;3.00;2.75;;;;;23.98;57.73;100639.97;5075140;27;47085;-77
2021/09/10 10:42:03;;;;;;;;;3.75;3.00;;;;;24.00;58.06;100637.94;5072434;27;45509;-77
2021/09/10 10:44:35;;;;;;;;;4.00;3.25;;;;;24.05;57.54;100625.63;5088451;27;45642;-79
2021/09/10 10:47:07;;;;;;;;;4.00;3.25;;;;;24.09;57.11;100632.25;5082860;27;45743;-78
2021/09/10 10:49:47;;;;;;;;;4.50;3.00;;;;;24.14;56.96;100626.28;5074571;27;47130;-78
2021/09/10 10:52:36;;;;;;;;;4.00;3.75;;;;;24.19;57.07;100629.25;5089122;27;45735;-77
2021/09/10 10:55:16;;;;;;;;;2.50;2.50;;;;;24.23;57.02;100626.00;5086483;27;45431;-78
2021/09/10 10:57:41;;;;;;;;;4.00;3.00;;;;;24.26;56.65;100622.06;5058133;28;47300;-78
2021/09/10 11:00:28;;;;;;;;;3.00;3.00;;;;;24.29;56.25;100621.69;5061650;27;47074;-75
2021/09/10 11:03:12;;;;;;;;;2.25;2.25;;;;;24.34;56.08;100626.47;5094540;27;45651;-78
2021/09/10 11:05:38;;;;;;;;;3.25;3.25;;;;;24.30;56.16;100612.63;5072214;27;45937;-78
2021/09/10 11:08:03;;;;;;;;;3.00;3.00;;;;;24.41;56.11;100624.63;5087031;27;45650;-78
2021/09/10 11:10:29;;;;;;;;;2.00;2.00;;;;;24.44;55.53;100629.59;5074116;27;46167;-77
2021/09/10 11:12:57;;;;;;;;;4.00;4.00;;;;;24.48;55.53;100622.81;5074028;27;45779;-78
2021/09/10 11:15:30;;;;;;;;;3.50;2.00;;;;;24.49;55.65;100625.31;5080156;27;45729;-78
2021/09/10 11:18:12;;;;;;;;;4.00;3.50;;;;;24.54;55.50;100622.03;5073167;27;46367;-77
2021/09/10 11:20:42;;;;;;;;;4.75;4.50;;;;;24.57;55.41;100625.13;5079288;27;46274;-78
2021/09/10 11:23:13;;;;;;;;;5.00;4.00;;;;;24.61;55.27;100638.97;5072160;28;45850;-78
2021/09/10 11:25:49;;;;;;;;;4.00;4.00;;;;;24.57;55.92;100630.47;5074242;27;45910;-77
2021/09/10 11:28:17;;;;;;;;;4.00;3.75;;;;;24.58;56.20;100640.16;5068702;27;47466;-78
2021/09/10 11:30:45;;;;;;;;;3.00;3.00;;;;;24.51;56.88;100617.88;5065166;28;46323;-77
2021/09/10 11:33:10;;;;;;;;;4.75;4.00;;;;;24.57;56.60;100624.28;5073829;27;45710;-79
2021/09/10 11:35:38;;;;;;;;;5.00;5.00;;;;;24.55;56.84;100623.69;5074180;27;45809;-76